sensor_id;sensor_type;location;lat;lon;timestamp;P1;durP1;ratioP1;P2;durP2;ratioP2
56391;SDS011;42289;53.582;9.714;2022-07-09T00:02:00;12.15;;;4.50;;
56391;SDS011;42289;53.582;9.714;2022-07-09T00:04:27;16.13;;;4.30;;
56391;SDS011;42289;53.582;9.714;2022-07-09T00:06:54;13.88;;;4.80;;
56391;SDS011;42289;53.582;9.714;2022-07-09T00:09:20;15.43;;;4.63;;
56391;SDS011;42289;53.582;9.714;2022-07-09T00:11:47;12.57;;;4.57;;
56391;SDS011;42289;53.582;9.714;2022-07-09T00:14:15;11.30;;;4.88;;
56391;SDS011;42289;53.582;9.714;2022-07-09T00:16:41;14.48;;;4.75;;
56391;SDS011;42289;53.582;9.714;2022-07-09T00:19:07;16.80;;;5.07;;
56391;SDS011;42289;53.582;9.714;2022-07-09T00:21:35;16.20;;;4.90;;
56391;SDS011;42289;53.582;9.714;2022-07-09T00:24:02;18.13;;;5.05;;
56391;SDS011;42289;53.582;9.714;2022-07-09T00:26:28;14.25;;;4.80;;
56391;SDS011;42289;53.582;9.714;2022-07-09T00:28:55;13.13;;;4.45;;
56391;SDS011;42289;53.582;9.714;2022-07-09T00:31:21;18.85;;;5.00;;
56391;SDS011;42289;53.582;9.714;2022-07-09T00:33:47;16.90;;;5.40;;
56391;SDS011;42289;53.582;9.714;2022-07-09T00:36:14;10.98;;;4.13;;
56391;SDS011;42289;53.582;9.714;2022-07-09T00:38:42;15.18;;;5.20;;
56391;SDS011;42289;53.582;9.714;2022-07-09T00:41:08;18.50;;;4.93;;
56391;SDS011;42289;53.582;9.714;2022-07-09T00:43:34;20.45;;;5.18;;
56391;SDS011;42289;53.582;9.714;2022-07-09T00:46:01;15.68;;;4.82;;
56391;SDS011;42289;53.582;9.714;2022-07-09T00:48:27;17.45;;;5.15;;
56391;SDS011;42289;53.582;9.714;2022-07-09T00:50:54;14.90;;;5.32;;
56391;SDS011;42289;53.582;9.714;2022-07-09T00:53:21;17.52;;;5.40;;
56391;SDS011;42289;53.582;9.714;2022-07-09T00:55:52;12.43;;;5.13;;
56391;SDS011;42289;53.582;9.714;2022-07-09T00:58:20;15.48;;;5.75;;
56391;SDS011;42289;53.582;9.714;2022-07-09T01:00:47;17.45;;;5.57;;
56391;SDS011;42289;53.582;9.714;2022-07-09T01:03:13;14.65;;;5.10;;
56391;SDS011;42289;53.582;9.714;2022-07-09T01:05:40;14.18;;;4.80;;
56391;SDS011;42289;53.582;9.714;2022-07-09T01:08:07;17.90;;;5.45;;
56391;SDS011;42289;53.582;9.714;2022-07-09T01:10:34;12.48;;;5.25;;
56391;SDS011;42289;53.582;9.714;2022-07-09T01:13:03;12.57;;;4.68;;
56391;SDS011;42289;53.582;9.714;2022-07-09T01:15:30;18.98;;;5.13;;
56391;SDS011;42289;53.582;9.714;2022-07-09T01:17:57;15.02;;;4.63;;
56391;SDS011;42289;53.582;9.714;2022-07-09T01:20:25;17.65;;;5.40;;
56391;SDS011;42289;53.582;9.714;2022-07-09T01:22:52;15.55;;;5.03;;
56391;SDS011;42289;53.582;9.714;2022-07-09T01:25:19;14.32;;;5.20;;
56391;SDS011;42289;53.582;9.714;2022-07-09T01:27:45;13.50;;;4.43;;
56391;SDS011;42289;53.582;9.714;2022-07-09T01:30:22;19.38;;;5.22;;
56391;SDS011;42289;53.582;9.714;2022-07-09T01:32:49;16.38;;;5.00;;
56391;SDS011;42289;53.582;9.714;2022-07-09T01:35:16;15.88;;;4.82;;
56391;SDS011;42289;53.582;9.714;2022-07-09T01:37:44;12.90;;;4.50;;
56391;SDS011;42289;53.582;9.714;2022-07-09T01:40:11;16.17;;;4.90;;
56391;SDS011;42289;53.582;9.714;2022-07-09T01:42:38;14.38;;;5.10;;
56391;SDS011;42289;53.582;9.714;2022-07-09T01:45:05;17.23;;;5.07;;
56391;SDS011;42289;53.582;9.714;2022-07-09T01:47:32;19.98;;;4.90;;
56391;SDS011;42289;53.582;9.714;2022-07-09T01:49:59;19.02;;;5.28;;
56391;SDS011;42289;53.582;9.714;2022-07-09T01:52:25;17.23;;;4.88;;
56391;SDS011;42289;53.582;9.714;2022-07-09T01:54:53;16.00;;;4.95;;
56391;SDS011;42289;53.582;9.714;2022-07-09T01:57:19;14.88;;;5.00;;
56391;SDS011;42289;53.582;9.714;2022-07-09T01:59:46;14.05;;;4.50;;
56391;SDS011;42289;53.582;9.714;2022-07-09T02:02:12;12.20;;;4.38;;
56391;SDS011;42289;53.582;9.714;2022-07-09T02:04:38;13.50;;;4.93;;
56391;SDS011;42289;53.582;9.714;2022-07-09T02:07:05;15.32;;;4.78;;
56391;SDS011;42289;53.582;9.714;2022-07-09T02:09:31;16.55;;;4.95;;
56391;SDS011;42289;53.582;9.714;2022-07-09T02:11:59;14.70;;;4.85;;
56391;SDS011;42289;53.582;9.714;2022-07-09T02:14:25;14.30;;;4.72;;
56391;SDS011;42289;53.582;9.714;2022-07-09T02:16:52;12.00;;;4.72;;
56391;SDS011;42289;53.582;9.714;2022-07-09T02:19:18;13.60;;;4.45;;
56391;SDS011;42289;53.582;9.714;2022-07-09T02:21:44;13.48;;;4.63;;
56391;SDS011;42289;53.582;9.714;2022-07-09T02:24:11;13.13;;;4.78;;
56391;SDS011;42289;53.582;9.714;2022-07-09T02:26:37;16.45;;;4.90;;
56391;SDS011;42289;53.582;9.714;2022-07-09T02:29:05;13.80;;;4.82;;
56391;SDS011;42289;53.582;9.714;2022-07-09T02:31:32;13.13;;;4.50;;
56391;SDS011;42289;53.582;9.714;2022-07-09T02:33:58;15.57;;;4.85;;
56391;SDS011;42289;53.582;9.714;2022-07-09T02:36:25;13.90;;;4.85;;
56391;SDS011;42289;53.582;9.714;2022-07-09T02:38:51;15.65;;;4.55;;
56391;SDS011;42289;53.582;9.714;2022-07-09T02:41:18;15.00;;;5.35;;
56391;SDS011;42289;53.582;9.714;2022-07-09T02:43:44;14.13;;;4.60;;
56391;SDS011;42289;53.582;9.714;2022-07-09T02:46:12;14.60;;;4.72;;
56391;SDS011;42289;53.582;9.714;2022-07-09T02:48:38;14.23;;;4.80;;
56391;SDS011;42289;53.582;9.714;2022-07-09T02:51:04;16.75;;;5.20;;
56391;SDS011;42289;53.582;9.714;2022-07-09T02:53:31;16.67;;;5.07;;
56391;SDS011;42289;53.582;9.714;2022-07-09T02:55:57;10.70;;;4.43;;
56391;SDS011;42289;53.582;9.714;2022-07-09T02:58:24;13.10;;;5.00;;
56391;SDS011;42289;53.582;9.714;2022-07-09T03:00:50;13.15;;;4.55;;
56391;SDS011;42289;53.582;9.714;2022-07-09T03:03:18;15.02;;;4.97;;
56391;SDS011;42289;53.582;9.714;2022-07-09T03:05:44;11.82;;;5.18;;
56391;SDS011;42289;53.582;9.714;2022-07-09T03:08:11;14.23;;;5.07;;
56391;SDS011;42289;53.582;9.714;2022-07-09T03:10:37;15.32;;;5.05;;
56391;SDS011;42289;53.582;9.714;2022-07-09T03:13:03;14.52;;;5.20;;
56391;SDS011;42289;53.582;9.714;2022-07-09T03:15:30;18.40;;;5.28;;
56391;SDS011;42289;53.582;9.714;2022-07-09T03:17:56;16.70;;;5.40;;
56391;SDS011;42289;53.582;9.714;2022-07-09T03:20:24;14.98;;;5.22;;
56391;SDS011;42289;53.582;9.714;2022-07-09T03:22:50;12.82;;;5.32;;
56391;SDS011;42289;53.582;9.714;2022-07-09T03:25:17;14.30;;;5.35;;
56391;SDS011;42289;53.582;9.714;2022-07-09T03:27:43;14.88;;;5.90;;
56391;SDS011;42289;53.582;9.714;2022-07-09T03:30:10;17.08;;;5.68;;
56391;SDS011;42289;53.582;9.714;2022-07-09T03:32:37;14.20;;;5.63;;
56391;SDS011;42289;53.582;9.714;2022-07-09T03:35:04;15.63;;;5.78;;
56391;SDS011;42289;53.582;9.714;2022-07-09T03:37:32;14.50;;;5.40;;
56391;SDS011;42289;53.582;9.714;2022-07-09T03:39:59;15.63;;;5.15;;
56391;SDS011;42289;53.582;9.714;2022-07-09T03:42:25;15.00;;;5.50;;
56391;SDS011;42289;53.582;9.714;2022-07-09T03:44:52;17.17;;;5.15;;
56391;SDS011;42289;53.582;9.714;2022-07-09T03:47:18;14.25;;;5.82;;
56391;SDS011;42289;53.582;9.714;2022-07-09T03:49:45;16.15;;;5.57;;
56391;SDS011;42289;53.582;9.714;2022-07-09T03:52:11;16.33;;;5.70;;
56391;SDS011;42289;53.582;9.714;2022-07-09T03:54:39;12.35;;;5.20;;
56391;SDS011;42289;53.582;9.714;2022-07-09T03:57:05;18.38;;;5.70;;
56391;SDS011;42289;53.582;9.714;2022-07-09T03:59:32;17.23;;;5.55;;
56391;SDS011;42289;53.582;9.714;2022-07-09T04:01:58;11.75;;;5.25;;
56391;SDS011;42289;53.582;9.714;2022-07-09T04:04:25;14.35;;;5.00;;
56391;SDS011;42289;53.582;9.714;2022-07-09T04:06:51;14.68;;;5.07;;
56391;SDS011;42289;53.582;9.714;2022-07-09T04:09:20;11.65;;;4.85;;
56391;SDS011;42289;53.582;9.714;2022-07-09T04:11:48;10.45;;;5.10;;
56391;SDS011;42289;53.582;9.714;2022-07-09T04:14:14;17.60;;;5.65;;
56391;SDS011;42289;53.582;9.714;2022-07-09T04:16:40;13.38;;;5.38;;
56391;SDS011;42289;53.582;9.714;2022-07-09T04:19:07;17.63;;;5.78;;
56391;SDS011;42289;53.582;9.714;2022-07-09T04:21:34;10.70;;;4.93;;
56391;SDS011;42289;53.582;9.714;2022-07-09T04:24:00;8.77;;;5.28;;
56391;SDS011;42289;53.582;9.714;2022-07-09T04:26:26;18.08;;;5.43;;
56391;SDS011;42289;53.582;9.714;2022-07-09T04:28:54;15.48;;;5.30;;
56391;SDS011;42289;53.582;9.714;2022-07-09T04:31:20;14.75;;;5.68;;
56391;SDS011;42289;53.582;9.714;2022-07-09T04:33:47;20.75;;;6.15;;
56391;SDS011;42289;53.582;9.714;2022-07-09T04:36:14;10.80;;;5.70;;
56391;SDS011;42289;53.582;9.714;2022-07-09T04:38:40;15.10;;;5.60;;
56391;SDS011;42289;53.582;9.714;2022-07-09T04:41:07;14.63;;;5.18;;
56391;SDS011;42289;53.582;9.714;2022-07-09T04:43:34;13.73;;;6.05;;
56391;SDS011;42289;53.582;9.714;2022-07-09T04:46:01;15.23;;;5.45;;
56391;SDS011;42289;53.582;9.714;2022-07-09T04:48:28;11.73;;;5.57;;
56391;SDS011;42289;53.582;9.714;2022-07-09T04:50:54;12.68;;;5.00;;
56391;SDS011;42289;53.582;9.714;2022-07-09T04:53:21;14.77;;;4.97;;
56391;SDS011;42289;53.582;9.714;2022-07-09T04:55:48;10.98;;;5.10;;
56391;SDS011;42289;53.582;9.714;2022-07-09T04:58:14;16.10;;;5.53;;
56391;SDS011;42289;53.582;9.714;2022-07-09T05:00:40;11.40;;;5.13;;
56391;SDS011;42289;53.582;9.714;2022-07-09T05:03:08;11.98;;;5.53;;
56391;SDS011;42289;53.582;9.714;2022-07-09T05:05:35;13.60;;;5.47;;
56391;SDS011;42289;53.582;9.714;2022-07-09T05:08:01;13.80;;;5.80;;
56391;SDS011;42289;53.582;9.714;2022-07-09T05:10:28;11.50;;;5.50;;
56391;SDS011;42289;53.582;9.714;2022-07-09T05:12:54;11.93;;;5.13;;
56391;SDS011;42289;53.582;9.714;2022-07-09T05:15:21;14.50;;;5.70;;
56391;SDS011;42289;53.582;9.714;2022-07-09T05:17:47;16.60;;;5.72;;
56391;SDS011;42289;53.582;9.714;2022-07-09T05:20:15;13.75;;;5.47;;
56391;SDS011;42289;53.582;9.714;2022-07-09T05:22:42;12.43;;;5.22;;
56391;SDS011;42289;53.582;9.714;2022-07-09T05:25:08;13.90;;;5.57;;
56391;SDS011;42289;53.582;9.714;2022-07-09T05:27:40;11.38;;;5.75;;
56391;SDS011;42289;53.582;9.714;2022-07-09T05:30:07;12.15;;;5.10;;
56391;SDS011;42289;53.582;9.714;2022-07-09T05:32:35;10.48;;;4.97;;
56391;SDS011;42289;53.582;9.714;2022-07-09T05:35:01;13.25;;;5.45;;
56391;SDS011;42289;53.582;9.714;2022-07-09T05:37:30;15.07;;;5.50;;
56391;SDS011;42289;53.582;9.714;2022-07-09T05:39:56;9.48;;;4.93;;
56391;SDS011;42289;53.582;9.714;2022-07-09T05:42:23;12.73;;;5.30;;
56391;SDS011;42289;53.582;9.714;2022-07-09T05:44:49;11.20;;;5.60;;
56391;SDS011;42289;53.582;9.714;2022-07-09T05:47:16;12.10;;;5.82;;
56391;SDS011;42289;53.582;9.714;2022-07-09T05:49:42;16.30;;;6.03;;
56391;SDS011;42289;53.582;9.714;2022-07-09T05:52:09;11.93;;;5.60;;
56391;SDS011;42289;53.582;9.714;2022-07-09T05:54:36;11.75;;;5.63;;
56391;SDS011;42289;53.582;9.714;2022-07-09T05:57:03;13.68;;;6.30;;
56391;SDS011;42289;53.582;9.714;2022-07-09T05:59:30;15.73;;;6.10;;
56391;SDS011;42289;53.582;9.714;2022-07-09T06:01:57;12.35;;;6.20;;
56391;SDS011;42289;53.582;9.714;2022-07-09T06:04:23;13.23;;;5.97;;
56391;SDS011;42289;53.582;9.714;2022-07-09T06:06:51;9.45;;;5.43;;
56391;SDS011;42289;53.582;9.714;2022-07-09T06:09:17;10.57;;;6.00;;
56391;SDS011;42289;53.582;9.714;2022-07-09T06:11:45;16.40;;;5.80;;
56391;SDS011;42289;53.582;9.714;2022-07-09T06:14:11;11.10;;;6.13;;
56391;SDS011;42289;53.582;9.714;2022-07-09T06:16:38;15.02;;;6.60;;
56391;SDS011;42289;53.582;9.714;2022-07-09T06:19:04;13.77;;;5.65;;
56391;SDS011;42289;53.582;9.714;2022-07-09T06:21:31;11.20;;;6.30;;
56391;SDS011;42289;53.582;9.714;2022-07-09T06:23:57;14.75;;;6.20;;
56391;SDS011;42289;53.582;9.714;2022-07-09T06:26:23;12.23;;;6.60;;
56391;SDS011;42289;53.582;9.714;2022-07-09T06:28:51;15.18;;;6.07;;
56391;SDS011;42289;53.582;9.714;2022-07-09T06:31:17;15.45;;;6.45;;
56391;SDS011;42289;53.582;9.714;2022-07-09T06:33:44;14.13;;;6.03;;
56391;SDS011;42289;53.582;9.714;2022-07-09T06:36:10;11.10;;;6.03;;
56391;SDS011;42289;53.582;9.714;2022-07-09T06:38:36;12.00;;;5.30;;
56391;SDS011;42289;53.582;9.714;2022-07-09T06:41:23;10.23;;;5.60;;
56391;SDS011;42289;53.582;9.714;2022-07-09T06:43:49;11.80;;;6.00;;
56391;SDS011;42289;53.582;9.714;2022-07-09T06:46:17;15.52;;;6.57;;
56391;SDS011;42289;53.582;9.714;2022-07-09T06:48:43;11.52;;;6.00;;
56391;SDS011;42289;53.582;9.714;2022-07-09T06:51:10;13.05;;;6.32;;
56391;SDS011;42289;53.582;9.714;2022-07-09T06:53:36;13.85;;;6.72;;
56391;SDS011;42289;53.582;9.714;2022-07-09T06:56:03;13.13;;;7.03;;
56391;SDS011;42289;53.582;9.714;2022-07-09T06:58:29;12.48;;;6.57;;
56391;SDS011;42289;53.582;9.714;2022-07-09T07:00:56;12.13;;;6.10;;
56391;SDS011;42289;53.582;9.714;2022-07-09T07:03:24;9.80;;;5.65;;
56391;SDS011;42289;53.582;9.714;2022-07-09T07:05:50;8.30;;;5.22;;
56391;SDS011;42289;53.582;9.714;2022-07-09T07:08:16;10.43;;;4.85;;
56391;SDS011;42289;53.582;9.714;2022-07-09T07:10:44;10.95;;;3.90;;
56391;SDS011;42289;53.582;9.714;2022-07-09T07:13:10;6.82;;;3.67;;
56391;SDS011;42289;53.582;9.714;2022-07-09T07:15:37;8.27;;;3.53;;
56391;SDS011;42289;53.582;9.714;2022-07-09T07:18:03;8.45;;;3.60;;
56391;SDS011;42289;53.582;9.714;2022-07-09T07:20:31;10.00;;;3.90;;
56391;SDS011;42289;53.582;9.714;2022-07-09T07:22:57;7.95;;;3.40;;
56391;SDS011;42289;53.582;9.714;2022-07-09T07:25:24;7.65;;;3.47;;
56391;SDS011;42289;53.582;9.714;2022-07-09T07:27:50;6.15;;;3.05;;
56391;SDS011;42289;53.582;9.714;2022-07-09T07:30:17;8.73;;;3.25;;
56391;SDS011;42289;53.582;9.714;2022-07-09T07:32:43;8.13;;;3.22;;
56391;SDS011;42289;53.582;9.714;2022-07-09T07:35:09;7.57;;;2.97;;
56391;SDS011;42289;53.582;9.714;2022-07-09T07:37:37;5.13;;;3.05;;
56391;SDS011;42289;53.582;9.714;2022-07-09T07:40:04;6.70;;;2.58;;
56391;SDS011;42289;53.582;9.714;2022-07-09T07:42:31;7.38;;;2.70;;
56391;SDS011;42289;53.582;9.714;2022-07-09T07:44:58;6.10;;;2.47;;
56391;SDS011;42289;53.582;9.714;2022-07-09T07:47:24;5.32;;;2.60;;
56391;SDS011;42289;53.582;9.714;2022-07-09T07:49:51;5.88;;;2.70;;
56391;SDS011;42289;53.582;9.714;2022-07-09T07:52:17;5.60;;;2.42;;
56391;SDS011;42289;53.582;9.714;2022-07-09T07:54:45;9.10;;;2.85;;
56391;SDS011;42289;53.582;9.714;2022-07-09T07:57:12;7.90;;;2.40;;
56391;SDS011;42289;53.582;9.714;2022-07-09T07:59:38;5.82;;;2.45;;
56391;SDS011;42289;53.582;9.714;2022-07-09T08:02:05;6.15;;;2.45;;
56391;SDS011;42289;53.582;9.714;2022-07-09T08:04:32;5.65;;;2.15;;
56391;SDS011;42289;53.582;9.714;2022-07-09T08:06:58;4.97;;;2.03;;
56391;SDS011;42289;53.582;9.714;2022-07-09T08:09:26;4.85;;;2.05;;
56391;SDS011;42289;53.582;9.714;2022-07-09T08:11:53;5.72;;;1.77;;
56391;SDS011;42289;53.582;9.714;2022-07-09T08:14:20;5.55;;;1.88;;
56391;SDS011;42289;53.582;9.714;2022-07-09T08:16:46;5.50;;;1.80;;
56391;SDS011;42289;53.582;9.714;2022-07-09T08:19:12;6.57;;;1.90;;
56391;SDS011;42289;53.582;9.714;2022-07-09T08:21:40;5.32;;;1.90;;
56391;SDS011;42289;53.582;9.714;2022-07-09T08:24:07;3.17;;;1.70;;
56391;SDS011;42289;53.582;9.714;2022-07-09T08:26:33;9.40;;;2.50;;
56391;SDS011;42289;53.582;9.714;2022-07-09T08:29:01;5.10;;;2.03;;
56391;SDS011;42289;53.582;9.714;2022-07-09T08:31:29;6.35;;;2.15;;
56391;SDS011;42289;53.582;9.714;2022-07-09T08:33:55;4.43;;;1.67;;
56391;SDS011;42289;53.582;9.714;2022-07-09T08:36:22;5.28;;;1.70;;
56391;SDS011;42289;53.582;9.714;2022-07-09T08:38:48;5.88;;;1.40;;
56391;SDS011;42289;53.582;9.714;2022-07-09T08:41:15;4.35;;;1.40;;
56391;SDS011;42289;53.582;9.714;2022-07-09T08:43:44;5.65;;;1.50;;
56391;SDS011;42289;53.582;9.714;2022-07-09T08:46:16;4.30;;;1.20;;
56391;SDS011;42289;53.582;9.714;2022-07-09T08:48:44;5.18;;;1.40;;
56391;SDS011;42289;53.582;9.714;2022-07-09T08:51:11;5.97;;;1.55;;
56391;SDS011;42289;53.582;9.714;2022-07-09T08:53:39;6.28;;;1.40;;
56391;SDS011;42289;53.582;9.714;2022-07-09T08:56:07;4.57;;;1.55;;
56391;SDS011;42289;53.582;9.714;2022-07-09T08:58:34;4.40;;;1.30;;
56391;SDS011;42289;53.582;9.714;2022-07-09T09:01:01;3.67;;;1.40;;
56391;SDS011;42289;53.582;9.714;2022-07-09T09:03:30;5.82;;;1.42;;
56391;SDS011;42289;53.582;9.714;2022-07-09T09:06:00;3.78;;;1.17;;
56391;SDS011;42289;53.582;9.714;2022-07-09T09:08:28;3.88;;;1.33;;
56391;SDS011;42289;53.582;9.714;2022-07-09T09:10:59;3.25;;;1.33;;
56391;SDS011;42289;53.582;9.714;2022-07-09T09:13:26;4.05;;;1.30;;
56391;SDS011;42289;53.582;9.714;2022-07-09T09:16:01;5.22;;;1.30;;
56391;SDS011;42289;53.582;9.714;2022-07-09T09:18:28;4.70;;;1.40;;
56391;SDS011;42289;53.582;9.714;2022-07-09T09:20:56;3.08;;;1.20;;
56391;SDS011;42289;53.582;9.714;2022-07-09T09:25:54;2.95;;;1.15;;
56391;SDS011;42289;53.582;9.714;2022-07-09T09:28:21;3.22;;;1.20;;
56391;SDS011;42289;53.582;9.714;2022-07-09T09:30:47;4.00;;;1.08;;
56391;SDS011;42289;53.582;9.714;2022-07-09T09:33:14;2.40;;;1.00;;
56391;SDS011;42289;53.582;9.714;2022-07-09T09:35:43;2.92;;;1.02;;
56391;SDS011;42289;53.582;9.714;2022-07-09T09:38:12;4.03;;;1.00;;
56391;SDS011;42289;53.582;9.714;2022-07-09T09:40:44;3.58;;;0.90;;
56391;SDS011;42289;53.582;9.714;2022-07-09T09:43:11;4.95;;;1.10;;
56391;SDS011;42289;53.582;9.714;2022-07-09T09:45:40;3.83;;;1.00;;
56391;SDS011;42289;53.582;9.714;2022-07-09T09:48:07;3.65;;;1.05;;
56391;SDS011;42289;53.582;9.714;2022-07-09T09:50:33;3.00;;;0.98;;
56391;SDS011;42289;53.582;9.714;2022-07-09T09:53:01;2.78;;;1.10;;
56391;SDS011;42289;53.582;9.714;2022-07-09T09:55:29;3.80;;;1.00;;
56391;SDS011;42289;53.582;9.714;2022-07-09T09:57:56;6.35;;;1.00;;
56391;SDS011;42289;53.582;9.714;2022-07-09T10:00:23;3.65;;;1.10;;
56391;SDS011;42289;53.582;9.714;2022-07-09T10:02:50;3.10;;;1.25;;
56391;SDS011;42289;53.582;9.714;2022-07-09T10:05:16;2.83;;;0.98;;
56391;SDS011;42289;53.582;9.714;2022-07-09T10:07:43;3.08;;;0.82;;
56391;SDS011;42289;53.582;9.714;2022-07-09T10:10:16;3.05;;;0.98;;
56391;SDS011;42289;53.582;9.714;2022-07-09T10:12:45;2.30;;;0.90;;
56391;SDS011;42289;53.582;9.714;2022-07-09T10:15:19;3.20;;;1.00;;
56391;SDS011;42289;53.582;9.714;2022-07-09T10:17:46;3.15;;;0.75;;
56391;SDS011;42289;53.582;9.714;2022-07-09T10:20:12;3.67;;;1.00;;
56391;SDS011;42289;53.582;9.714;2022-07-09T10:22:39;2.70;;;0.80;;
56391;SDS011;42289;53.582;9.714;2022-07-09T10:25:07;3.72;;;0.90;;
56391;SDS011;42289;53.582;9.714;2022-07-09T10:27:41;3.13;;;1.05;;
56391;SDS011;42289;53.582;9.714;2022-07-09T10:30:10;5.03;;;1.08;;
56391;SDS011;42289;53.582;9.714;2022-07-09T10:32:59;3.88;;;1.10;;
56391;SDS011;42289;53.582;9.714;2022-07-09T10:35:27;3.42;;;1.30;;
56391;SDS011;42289;53.582;9.714;2022-07-09T10:37:54;2.33;;;0.90;;
56391;SDS011;42289;53.582;9.714;2022-07-09T10:40:21;4.00;;;1.20;;
56391;SDS011;42289;53.582;9.714;2022-07-09T10:42:56;3.33;;;1.08;;
56391;SDS011;42289;53.582;9.714;2022-07-09T10:45:26;4.13;;;1.33;;
56391;SDS011;42289;53.582;9.714;2022-07-09T10:47:53;3.92;;;1.10;;
56391;SDS011;42289;53.582;9.714;2022-07-09T10:50:21;5.13;;;1.10;;
56391;SDS011;42289;53.582;9.714;2022-07-09T10:52:48;6.15;;;1.00;;
56391;SDS011;42289;53.582;9.714;2022-07-09T10:55:15;3.90;;;0.77;;
56391;SDS011;42289;53.582;9.714;2022-07-09T10:57:43;4.95;;;1.10;;
56391;SDS011;42289;53.582;9.714;2022-07-09T11:00:13;2.63;;;1.17;;
56391;SDS011;42289;53.582;9.714;2022-07-09T11:02:51;5.22;;;1.13;;
56391;SDS011;42289;53.582;9.714;2022-07-09T11:05:18;3.40;;;1.08;;
56391;SDS011;42289;53.582;9.714;2022-07-09T11:07:53;5.30;;;1.30;;
56391;SDS011;42289;53.582;9.714;2022-07-09T11:10:30;4.18;;;1.00;;
56391;SDS011;42289;53.582;9.714;2022-07-09T11:12:58;6.25;;;1.38;;
56391;SDS011;42289;53.582;9.714;2022-07-09T11:15:26;4.28;;;1.10;;
56391;SDS011;42289;53.582;9.714;2022-07-09T11:17:56;2.92;;;1.00;;
56391;SDS011;42289;53.582;9.714;2022-07-09T11:20:23;3.20;;;1.05;;
56391;SDS011;42289;53.582;9.714;2022-07-09T11:22:50;4.55;;;1.05;;
56391;SDS011;42289;53.582;9.714;2022-07-09T11:25:17;3.85;;;1.10;;
56391;SDS011;42289;53.582;9.714;2022-07-09T11:27:43;3.22;;;1.00;;
56391;SDS011;42289;53.582;9.714;2022-07-09T11:30:11;4.55;;;1.20;;
56391;SDS011;42289;53.582;9.714;2022-07-09T11:32:39;4.65;;;1.10;;
56391;SDS011;42289;53.582;9.714;2022-07-09T11:35:08;1.73;;;0.85;;
56391;SDS011;42289;53.582;9.714;2022-07-09T11:37:34;5.53;;;1.30;;
56391;SDS011;42289;53.582;9.714;2022-07-09T11:40:01;5.50;;;1.20;;
56391;SDS011;42289;53.582;9.714;2022-07-09T11:42:27;3.65;;;1.00;;
56391;SDS011;42289;53.582;9.714;2022-07-09T11:44:54;3.00;;;1.00;;
56391;SDS011;42289;53.582;9.714;2022-07-09T11:47:31;4.22;;;0.88;;
56391;SDS011;42289;53.582;9.714;2022-07-09T11:50:04;6.15;;;1.20;;
56391;SDS011;42289;53.582;9.714;2022-07-09T11:52:32;4.03;;;1.00;;
56391;SDS011;42289;53.582;9.714;2022-07-09T11:54:59;5.15;;;1.13;;
56391;SDS011;42289;53.582;9.714;2022-07-09T11:57:28;4.07;;;1.00;;
56391;SDS011;42289;53.582;9.714;2022-07-09T11:59:56;4.20;;;1.27;;
56391;SDS011;42289;53.582;9.714;2022-07-09T12:02:23;3.53;;;1.25;;
56391;SDS011;42289;53.582;9.714;2022-07-09T12:04:50;5.00;;;1.20;;
56391;SDS011;42289;53.582;9.714;2022-07-09T12:07:17;3.67;;;1.30;;
56391;SDS011;42289;53.582;9.714;2022-07-09T12:09:45;6.18;;;1.10;;
56391;SDS011;42289;53.582;9.714;2022-07-09T12:12:11;6.20;;;1.20;;
56391;SDS011;42289;53.582;9.714;2022-07-09T12:14:38;4.15;;;1.10;;
56391;SDS011;42289;53.582;9.714;2022-07-09T12:17:04;3.17;;;1.15;;
56391;SDS011;42289;53.582;9.714;2022-07-09T12:19:31;4.65;;;1.10;;
56391;SDS011;42289;53.582;9.714;2022-07-09T12:21:57;3.25;;;1.20;;
56391;SDS011;42289;53.582;9.714;2022-07-09T12:24:24;5.30;;;1.38;;
56391;SDS011;42289;53.582;9.714;2022-07-09T12:26:52;6.90;;;1.50;;
56391;SDS011;42289;53.582;9.714;2022-07-09T12:29:18;3.55;;;1.10;;
56391;SDS011;42289;53.582;9.714;2022-07-09T12:31:44;3.65;;;1.20;;
56391;SDS011;42289;53.582;9.714;2022-07-09T12:34:11;6.60;;;1.17;;
56391;SDS011;42289;53.582;9.714;2022-07-09T12:36:37;4.43;;;1.27;;
56391;SDS011;42289;53.582;9.714;2022-07-09T12:39:06;5.65;;;1.48;;
56391;SDS011;42289;53.582;9.714;2022-07-09T12:41:32;7.38;;;1.85;;
56391;SDS011;42289;53.582;9.714;2022-07-09T12:44:00;3.22;;;1.10;;
56391;SDS011;42289;53.582;9.714;2022-07-09T12:46:26;8.35;;;1.60;;
56391;SDS011;42289;53.582;9.714;2022-07-09T12:48:53;5.80;;;1.60;;
56391;SDS011;42289;53.582;9.714;2022-07-09T12:51:19;4.65;;;1.30;;
56391;SDS011;42289;53.582;9.714;2022-07-09T12:53:46;5.35;;;1.20;;
56391;SDS011;42289;53.582;9.714;2022-07-09T12:56:12;4.70;;;1.20;;
56391;SDS011;42289;53.582;9.714;2022-07-09T12:58:39;4.63;;;1.25;;
56391;SDS011;42289;53.582;9.714;2022-07-09T13:01:07;5.57;;;1.30;;
56391;SDS011;42289;53.582;9.714;2022-07-09T13:03:33;4.70;;;0.93;;
56391;SDS011;42289;53.582;9.714;2022-07-09T13:06:00;6.88;;;1.02;;
56391;SDS011;42289;53.582;9.714;2022-07-09T13:08:26;4.47;;;1.27;;
56391;SDS011;42289;53.582;9.714;2022-07-09T13:10:53;3.97;;;0.90;;
56391;SDS011;42289;53.582;9.714;2022-07-09T13:13:19;6.63;;;1.20;;
56391;SDS011;42289;53.582;9.714;2022-07-09T13:15:46;6.25;;;1.30;;
56391;SDS011;42289;53.582;9.714;2022-07-09T13:18:14;4.47;;;1.20;;
56391;SDS011;42289;53.582;9.714;2022-07-09T13:20:42;3.92;;;0.90;;
56391;SDS011;42289;53.582;9.714;2022-07-09T13:23:09;7.07;;;1.00;;
56391;SDS011;42289;53.582;9.714;2022-07-09T13:25:35;4.93;;;1.02;;
56391;SDS011;42289;53.582;9.714;2022-07-09T13:28:02;3.17;;;0.90;;
56391;SDS011;42289;53.582;9.714;2022-07-09T13:30:29;3.60;;;0.90;;
56391;SDS011;42289;53.582;9.714;2022-07-09T13:32:55;4.90;;;1.13;;
56391;SDS011;42289;53.582;9.714;2022-07-09T13:35:23;3.30;;;0.90;;
56391;SDS011;42289;53.582;9.714;2022-07-09T13:37:50;5.03;;;1.05;;
56391;SDS011;42289;53.582;9.714;2022-07-09T13:40:16;3.58;;;1.00;;
56391;SDS011;42289;53.582;9.714;2022-07-09T13:42:43;4.20;;;1.10;;
56391;SDS011;42289;53.582;9.714;2022-07-09T13:45:09;5.38;;;0.98;;
56391;SDS011;42289;53.582;9.714;2022-07-09T13:47:36;5.20;;;0.90;;
56391;SDS011;42289;53.582;9.714;2022-07-09T13:50:03;4.70;;;0.90;;
56391;SDS011;42289;53.582;9.714;2022-07-09T13:52:31;4.22;;;1.23;;
56391;SDS011;42289;53.582;9.714;2022-07-09T13:54:57;3.53;;;0.90;;
56391;SDS011;42289;53.582;9.714;2022-07-09T13:57:24;4.32;;;1.23;;
56391;SDS011;42289;53.582;9.714;2022-07-09T13:59:50;4.82;;;1.10;;
56391;SDS011;42289;53.582;9.714;2022-07-09T14:02:17;5.00;;;1.40;;
56391;SDS011;42289;53.582;9.714;2022-07-09T14:04:43;6.07;;;1.20;;
56391;SDS011;42289;53.582;9.714;2022-07-09T14:07:10;7.05;;;1.30;;
56391;SDS011;42289;53.582;9.714;2022-07-09T14:09:39;4.70;;;1.10;;
56391;SDS011;42289;53.582;9.714;2022-07-09T14:12:06;5.63;;;1.10;;
56391;SDS011;42289;53.582;9.714;2022-07-09T14:14:32;4.05;;;1.00;;
56391;SDS011;42289;53.582;9.714;2022-07-09T14:16:59;3.33;;;1.05;;
56391;SDS011;42289;53.582;9.714;2022-07-09T14:19:26;4.68;;;1.10;;
56391;SDS011;42289;53.582;9.714;2022-07-09T14:21:53;5.68;;;1.20;;
56391;SDS011;42289;53.582;9.714;2022-07-09T14:24:19;6.85;;;1.30;;
56391;SDS011;42289;53.582;9.714;2022-07-09T14:26:47;5.30;;;1.27;;
56391;SDS011;42289;53.582;9.714;2022-07-09T14:29:13;6.47;;;1.10;;
56391;SDS011;42289;53.582;9.714;2022-07-09T14:31:40;7.22;;;1.20;;
56391;SDS011;42289;53.582;9.714;2022-07-09T14:34:06;6.38;;;1.30;;
56391;SDS011;42289;53.582;9.714;2022-07-09T14:36:33;5.78;;;1.08;;
56391;SDS011;42289;53.582;9.714;2022-07-09T14:39:00;5.53;;;1.30;;
56391;SDS011;42289;53.582;9.714;2022-07-09T14:41:27;5.72;;;1.33;;
56391;SDS011;42289;53.582;9.714;2022-07-09T14:43:55;5.68;;;1.30;;